Time;durP1;ratioP1;P1;durP2;ratioP2;P2;SDS_P1;SDS_P2;PMS_P1;PMS_P2;Temp;Humidity;BMP_temperature;BMP_pressure;BME280_temperature;BME280_humidity;BME280_pressure;Samples;Min_cycle;Max_cycle;Signal;HPM_P1;HPM_P2
2023/09/19 00:00:21;;;;;;;2.92;1.33;;;;;;;21.46;62.58;100720.53;4991114;28;20037;-58
2023/09/19 00:02:53;;;;;;;5.03;1.55;;;;;;;21.46;62.73;100725.94;4991967;28;20093;-57
2023/09/19 00:05:19;;;;;;;4.40;1.60;;;;;;;21.46;62.81;100725.94;4989053;28;20428;-57
2023/09/19 00:07:44;;;;;;;4.38;1.30;;;;;;;21.46;62.77;100725.94;4989801;28;20031;-57
2023/09/19 00:10:10;;;;;;;4.68;1.70;;;;;;;21.45;62.78;100734.22;4986821;28;20212;-57
2023/09/19 00:12:35;;;;;;;3.10;1.50;;;;;;;21.45;63.08;100740.47;5007660;28;20036;-57
2023/09/19 00:15:05;;;;;;;4.30;1.58;;;;;;;21.45;62.54;100737.78;4990955;28;20061;-57
2023/09/19 00:17:31;;;;;;;4.45;1.65;;;;;;;21.45;62.36;100743.19;4987103;28;20030;-57
2023/09/19 00:19:57;;;;;;;5.97;1.90;;;;;;;21.44;62.30;100744.22;4984260;28;20035;-57
2023/09/19 00:22:22;;;;;;;5.15;1.75;;;;;;;21.43;62.91;100742.50;4990148;28;20033;-57
2023/09/19 00:24:48;;;;;;;6.05;1.80;;;;;;;21.43;62.70;100747.91;4985468;28;20036;-57
2023/09/19 00:27:13;;;;;;;3.38;1.40;;;;;;;21.44;62.62;100744.22;4991468;28;20030;-59
2023/09/19 00:29:39;;;;;;;5.00;1.42;;;;;;;21.44;62.60;100757.78;4987969;28;20034;-57
2023/09/19 00:32:06;;;;;;;3.15;1.50;;;;;;;21.43;62.49;100758.75;4990170;28;20034;-57
2023/09/19 00:34:34;;;;;;;4.13;1.60;;;;;;;21.43;62.81;100761.44;4983699;28;20035;-57
2023/09/19 00:36:59;;;;;;;4.45;1.60;;;;;;;21.42;62.49;100759.78;4985711;28;20030;-58
2023/09/19 00:39:25;;;;;;;3.58;1.38;;;;;;;21.42;62.34;100770.63;4993907;28;20030;-57
2023/09/19 00:41:51;;;;;;;4.72;1.60;;;;;;;21.41;62.63;100766.19;4988651;28;20062;-57
2023/09/19 00:44:17;;;;;;;3.63;1.20;;;;;;;21.41;62.64;100768.06;4987471;28;20153;-57
2023/09/19 00:46:43;;;;;;;3.92;1.20;;;;;;;21.40;62.48;100772.66;4988379;28;20038;-57
2023/09/19 00:49:09;;;;;;;4.20;1.52;;;;;;;21.40;62.35;100772.66;4988509;28;20026;-57
2023/09/19 00:51:35;;;;;;;5.55;1.63;;;;;;;21.41;62.08;100782.44;4986759;28;20539;-57
2023/09/19 00:54:02;;;;;;;2.97;1.70;;;;;;;21.40;61.91;100785.31;4991908;28;20094;-57
2023/09/19 00:56:28;;;;;;;3.40;1.38;;;;;;;21.40;62.40;100788.03;4990333;28;20044;-58
2023/09/19 00:58:53;;;;;;;4.47;1.40;;;;;;;21.39;61.97;100783.66;4989376;28;20026;-58
2023/09/19 01:01:19;;;;;;;6.05;1.42;;;;;;;21.39;62.23;100795.31;4988301;28;20488;-57
2023/09/19 01:03:45;;;;;;;3.13;1.50;;;;;;;21.38;62.01;100795.47;4986991;28;20110;-58
2023/09/19 01:06:10;;;;;;;3.40;1.40;;;;;;;21.39;62.41;100802.59;4991440;28;20116;-57
2023/09/19 01:08:36;;;;;;;3.03;1.27;;;;;;;21.39;61.64;100799.91;4989383;28;20041;-57
2023/09/19 01:11:28;;;;;;;3.97;1.52;;;;;;;21.39;62.36;100803.44;4986656;28;20121;-57
2023/09/19 01:14:10;;;;;;;5.35;1.58;;;;;;;21.39;62.27;100805.31;4988209;28;20138;-57
2023/09/19 01:16:44;;;;;;;3.92;1.58;;;;;;;21.37;61.72;100796.50;4989033;28;20034;-57
2023/09/19 01:19:28;;;;;;;3.30;1.40;;;;;;;21.39;62.29;100798.03;4991092;28;20435;-57
2023/09/19 01:22:32;;;;;;;4.63;1.60;;;;;;;21.39;62.07;100802.59;4988949;28;20124;-57
2023/09/19 01:25:07;;;;;;;4.45;1.02;;;;;;;21.36;61.65;100811.94;4989557;28;20026;-57
2023/09/19 01:27:51;;;;;;;3.95;1.65;;;;;;;21.37;62.28;100802.78;4988579;28;20527;-57
2023/09/19 01:30:24;;;;;;;4.75;1.27;;;;;;;21.35;62.47;100810.22;4986390;28;20030;-57
2023/09/19 01:32:52;;;;;;;4.88;1.55;;;;;;;21.33;61.98;100806.84;4988420;28;20049;-58
2023/09/19 01:35:18;;;;;;;3.33;1.70;;;;;;;21.34;62.41;100827.47;4987959;28;20045;-58
2023/09/19 01:37:44;;;;;;;3.28;1.23;;;;;;;21.33;61.89;100824.97;4987337;28;20050;-57
2023/09/19 01:40:16;;;;;;;4.53;1.48;;;;;;;21.31;61.53;100830.53;4993402;28;20061;-57
2023/09/19 01:42:56;;;;;;;5.65;1.30;;;;;;;21.34;61.86;100840.19;4990096;28;20052;-57
2023/09/19 01:45:27;;;;;;;4.43;1.52;;;;;;;21.32;62.41;100832.22;4987271;28;20049;-57
2023/09/19 01:47:55;;;;;;;2.90;1.47;;;;;;;21.31;62.02;100835.97;4985958;28;20061;-57
2023/09/19 01:50:49;;;;;;;4.20;1.42;;;;;;;21.34;62.29;100832.88;4986661;28;20301;-57
2023/09/19 01:53:30;;;;;;;4.40;1.40;;;;;;;21.32;61.69;100831.38;4979936;28;20046;-57
2023/09/19 01:55:56;;;;;;;;;;;;;;;21.39;61.79;100826.97;4984627;28;20034;-55
2023/09/19 01:58:33;;;;;;;4.18;1.55;;;;;;;21.32;61.83;100826.78;4988684;28;20355;-55
2023/09/19 02:01:00;;;;;;;3.80;1.48;;;;;;;21.30;62.07;100828.84;4987166;28;20478;-58
2023/09/19 02:03:28;;;;;;;2.92;1.27;;;;;;;21.30;61.38;100828.84;4991257;28;20518;-58
2023/09/19 02:05:54;;;;;;;4.15;1.92;;;;;;;21.28;61.50;100822.75;4988662;28;20038;-55
2023/09/19 02:08:23;;;;;;;3.50;1.25;;;;;;;21.28;61.67;100825.44;4987815;28;20460;-55
2023/09/19 02:10:49;;;;;;;4.93;1.35;;;;;;;21.27;61.47;100818.34;4990099;28;20038;-55
2023/09/19 02:13:17;;;;;;;4.18;1.42;;;;;;;21.29;61.85;100824.44;4987717;28;20034;-55
2023/09/19 02:15:44;;;;;;;3.35;1.58;;;;;;;21.27;61.55;100830.03;4990102;28;20113;-55
2023/09/19 02:18:09;;;;;;;3.67;1.48;;;;;;;21.27;61.46;100824.59;4992911;28;20053;-55
2023/09/19 02:20:34;;;;;;;4.30;1.50;;;;;;;21.27;62.21;100832.72;4983259;28;20038;-56
2023/09/19 02:23:00;;;;;;;3.75;1.30;;;;;;;21.26;61.44;100828.31;4990418;28;20085;-56
2023/09/19 02:25:27;;;;;;;2.97;1.50;;;;;;;21.26;61.57;100828.31;4992388;28;20448;-55
2023/09/19 02:27:53;;;;;;;3.38;1.55;;;;;;;21.25;61.12;100826.63;4990299;28;20110;-55
2023/09/19 02:30:20;;;;;;;4.40;1.33;;;;;;;21.25;61.67;100832.06;4986685;28;20477;-55
2023/09/19 02:32:46;;;;;;;4.18;1.88;;;;;;;21.25;60.98;100847.47;4989821;28;20026;-55
2023/09/19 02:35:12;;;;;;;3.22;1.30;;;;;;;21.25;61.32;100847.47;4987797;28;20388;-55
2023/09/19 02:37:37;;;;;;;3.25;1.23;;;;;;;21.26;61.89;100843.72;4988694;28;20027;-58
2023/09/19 02:40:13;;;;;;;3.92;1.67;;;;;;;21.24;61.67;100841.19;4992635;28;20061;-58
2023/09/19 02:42:38;;;;;;;2.90;1.08;;;;;;;21.24;61.53;100843.06;4987719;28;20069;-58
2023/09/19 02:45:05;;;;;;;3.45;1.60;;;;;;;21.23;61.41;100838.66;4979252;28;20059;-58
2023/09/19 02:47:31;;;;;;;4.53;1.45;;;;;;;21.23;61.19;100853.03;4987995;28;20030;-57
2023/09/19 02:49:56;;;;;;;3.92;1.52;;;;;;;21.23;61.46;100844.09;4988197;28;20053;-58
2023/09/19 02:52:22;;;;;;;2.70;1.27;;;;;;;21.23;61.38;100849.50;4986315;28;20030;-58
2023/09/19 02:54:48;;;;;;;4.88;1.70;;;;;;;21.22;61.54;100847.78;4991929;28;20038;-58
2023/09/19 02:57:15;;;;;;;3.92;1.60;;;;;;;21.22;61.19;100848.63;4986201;28;20419;-59
2023/09/19 02:59:44;;;;;;;5.00;1.45;;;;;;;21.21;61.14;100846.09;4991360;28;20471;-59
2023/09/19 03:02:09;;;;;;;2.15;1.17;;;;;;;21.21;61.00;100852.38;4993282;28;20076;-56
2023/09/19 03:04:35;;;;;;;2.95;1.40;;;;;;;21.22;61.33;100855.91;4992940;28;20535;-55
2023/09/19 03:07:01;;;;;;;3.05;1.52;;;;;;;21.21;60.98;100852.38;4990858;28;20467;-55
2023/09/19 03:09:26;;;;;;;4.28;1.15;;;;;;;21.20;60.77;100856.06;4992278;28;20097;-58
2023/09/19 03:11:51;;;;;;;3.78;1.52;;;;;;;21.20;61.33;100849.81;4989734;28;20388;-58
2023/09/19 03:14:19;;;;;;;4.45;1.35;;;;;;;21.20;60.63;100860.66;4988629;28;20042;-57
2023/09/19 03:16:45;;;;;;;3.72;1.60;;;;;;;21.20;61.28;100857.94;4991798;28;20035;-58
2023/09/19 03:19:11;;;;;;;2.38;1.25;;;;;;;21.19;61.36;100850.81;4991133;28;20039;-58
2023/09/19 03:21:36;;;;;;;3.50;1.40;;;;;;;21.19;60.42;100856.25;4994176;28;20038;-58
2023/09/19 03:24:02;;;;;;;3.90;1.70;;;;;;;21.19;60.52;100856.25;4992294;28;20070;-58
2023/09/19 03:26:27;;;;;;;4.07;1.48;;;;;;;21.18;60.97;100860.81;4991169;28;20469;-58
2023/09/19 03:28:54;;;;;;;3.15;1.30;;;;;;;21.18;61.07;100851.84;4988710;28;20506;-58
2023/09/19 03:31:19;;;;;;;3.42;1.48;;;;;;;21.16;60.91;100854.72;4990590;28;20030;-58
2023/09/19 03:33:44;;;;;;;4.95;1.88;;;;;;;21.16;60.99;100851.19;4990372;28;20077;-58
2023/09/19 03:36:10;;;;;;;4.65;1.40;;;;;;;21.16;61.05;100853.88;4992658;28;20026;-60
2023/09/19 03:38:35;;;;;;;3.60;1.40;;;;;;;21.16;61.13;100859.28;4988375;28;20026;-58
2023/09/19 03:41:02;;;;;;;3.13;1.45;;;;;;;21.15;61.28;100852.19;4986830;28;20031;-58
2023/09/19 03:43:27;;;;;;;3.42;1.30;;;;;;;21.13;61.06;100846.91;4991526;28;20034;-58
2023/09/19 03:45:55;;;;;;;3.55;1.30;;;;;;;21.14;60.95;100837.78;4989501;28;20037;-55
2023/09/19 03:48:21;;;;;;;3.10;1.20;;;;;;;21.14;61.07;100839.66;4992216;28;20041;-55
2023/09/19 03:50:47;;;;;;;2.38;1.15;;;;;;;21.14;60.89;100836.97;4988631;28;20038;-55
2023/09/19 03:53:13;;;;;;;3.70;1.63;;;;;;;21.13;60.72;100837.97;4983857;28;20469;-55
2023/09/19 03:55:39;;;;;;;3.45;1.40;;;;;;;21.13;60.34;100836.09;4990981;28;20030;-55
2023/09/19 03:58:04;;;;;;;2.65;1.20;;;;;;;21.13;60.75;100832.53;4988838;28;20050;-55
2023/09/19 04:00:30;;;;;;;3.72;1.13;;;;;;;21.12;61.00;100831.72;4993369;28;20073;-56
2023/09/19 04:02:56;;;;;;;4.05;1.45;;;;;;;21.13;60.97;100837.97;4986162;28;20491;-56
2023/09/19 04:05:22;;;;;;;2.25;1.20;;;;;;;21.12;60.66;100839.81;5003848;28;20078;-56
2023/09/19 04:07:48;;;;;;;2.35;1.20;;;;;;;21.11;60.73;100835.41;4987913;28;20480;-56
2023/09/19 04:10:14;;;;;;;3.40;1.20;;;;;;;21.12;61.05;100839.00;4985136;28;20062;-56
2023/09/19 04:12:40;;;;;;;7.50;1.30;;;;;;;21.11;60.92;100835.41;4984749;28;20439;-56
2023/09/19 04:15:06;;;;;;;2.47;1.30;;;;;;;21.09;60.29;100834.75;4991621;28;20030;-56
2023/09/19 04:17:34;;;;;;;4.43;1.30;;;;;;;21.09;60.47;100838.31;4985268;28;20089;-56
2023/09/19 04:19:59;;;;;;;3.13;1.13;;;;;;;21.11;60.38;100850.81;4990426;28;20038;-56
2023/09/19 04:22:25;;;;;;;1.75;1.17;;;;;;;21.10;60.30;100855.41;4988979;28;20403;-56
2023/09/19 04:24:51;;;;;;;2.67;1.20;;;;;;;21.09;60.50;100859.09;4992467;28;20034;-56
2023/09/19 04:27:16;;;;;;;3.80;1.27;;;;;;;21.10;60.54;100866.22;4989273;28;20033;-56
2023/09/19 04:29:42;;;;;;;3.00;1.33;;;;;;;21.09;60.50;100865.38;4994222;28;20459;-57
2023/09/19 04:32:09;;;;;;;3.75;1.48;;;;;;;21.09;60.48;100864.53;4990556;28;20117;-56
2023/09/19 04:34:35;;;;;;;2.75;1.10;;;;;;;21.09;60.34;100875.34;4993333;28;20526;-56
2023/09/19 04:37:00;;;;;;;4.05;1.20;;;;;;;21.09;60.36;100878.06;4986988;28;20050;-56
2023/09/19 04:39:27;;;;;;;2.20;1.17;;;;;;;21.08;59.97;100887.22;4984048;28;20484;-56
2023/09/19 04:41:53;;;;;;;1.67;1.20;;;;;;;21.08;60.69;100889.91;4990055;28;20027;-56
2023/09/19 04:44:18;;;;;;;1.70;1.10;;;;;;;21.08;60.34;100900.75;4987518;28;20041;-56
2023/09/19 04:46:44;;;;;;;3.00;1.33;;;;;;;21.06;59.73;100898.19;4989379;28;20026;-56
2023/09/19 04:49:09;;;;;;;2.25;1.17;;;;;;;21.07;59.50;100909.88;4991028;28;20030;-56
2023/09/19 04:51:36;;;;;;;3.95;1.58;;;;;;;21.07;60.14;100912.56;4981029;28;20477;-56
2023/09/19 04:54:02;;;;;;;2.45;1.48;;;;;;;21.07;59.81;100909.88;4986890;28;20034;-56
2023/09/19 04:56:31;;;;;;;3.03;1.25;;;;;;;21.06;60.48;100908.19;4986871;28;20117;-56
2023/09/19 04:58:58;;;;;;;2.92;1.15;;;;;;;21.06;60.60;100909.03;4989018;28;20077;-56
2023/09/19 05:01:23;;;;;;;3.78;1.23;;;;;;;21.06;60.00;100908.19;4989823;28;20023;-56
2023/09/19 05:03:52;;;;;;;2.45;1.17;;;;;;;21.06;60.12;100908.19;4988636;28;20026;-56
2023/09/19 05:06:21;;;;;;;3.90;1.40;;;;;;;21.05;60.15;100918.16;4989145;28;20370;-56
2023/09/19 05:08:50;;;;;;;2.80;1.50;;;;;;;21.05;60.29;100914.59;4987796;28;20034;-56
2023/09/19 05:11:21;;;;;;;3.15;1.25;;;;;;;21.05;59.94;100915.44;4991128;28;20530;-56
2023/09/19 05:13:47;;;;;;;3.25;1.23;;;;;;;21.04;60.03;100911.06;4989043;28;20054;-56
2023/09/19 05:16:12;;;;;;;3.00;1.17;;;;;;;21.04;60.24;100916.47;4989888;28;20508;-56
2023/09/19 05:18:37;;;;;;;4.97;1.60;;;;;;;21.04;59.67;100916.47;4990583;28;20376;-56
2023/09/19 05:21:03;;;;;;;3.42;1.40;;;;;;;21.03;59.87;100917.47;4987947;28;20038;-56
2023/09/19 05:23:28;;;;;;;4.35;1.30;;;;;;;21.03;59.90;100919.34;4990226;28;20392;-56
2023/09/19 05:25:54;;;;;;;2.72;1.30;;;;;;;21.03;59.88;100919.34;4989549;28;20606;-56
2023/09/19 05:28:20;;;;;;;2.67;1.20;;;;;;;21.02;60.06;100921.19;4988101;28;20677;-56
2023/09/19 05:30:45;;;;;;;2.53;1.15;;;;;;;21.02;60.64;100921.19;4988231;28;20038;-56
2023/09/19 05:33:11;;;;;;;4.03;1.38;;;;;;;21.03;59.97;100931.00;4986732;28;20034;-56
2023/09/19 05:35:39;;;;;;;2.50;1.08;;;;;;;21.02;60.00;100932.03;4992830;28;20029;-56
2023/09/19 05:38:08;;;;;;;3.30;1.35;;;;;;;21.01;60.28;100927.63;4987376;28;20026;-56
2023/09/19 05:40:34;;;;;;;4.93;1.63;;;;;;;21.01;60.17;100933.03;4983856;28;20049;-56
2023/09/19 05:43:00;;;;;;;4.95;1.77;;;;;;;21.01;59.93;100938.44;4984473;28;20034;-56
2023/09/19 05:45:25;;;;;;;3.03;1.38;;;;;;;21.02;60.04;100932.03;4987087;28;20052;-56
2023/09/19 05:47:55;;;;;;;2.63;1.50;;;;;;;21.01;59.99;100927.63;4988307;28;20022;-56
2023/09/19 05:50:21;;;;;;;6.95;1.85;;;;;;;21.00;60.41;100928.63;4982176;28;20033;-56
2023/09/19 05:52:54;;;;;;;6.80;1.88;;;;;;;21.01;59.98;100926.78;4984581;28;20030;-56
2023/09/19 05:55:20;;;;;;;3.85;1.67;;;;;;;21.01;59.98;100930.31;4986784;28;20038;-56
2023/09/19 05:57:52;;;;;;;4.22;1.40;;;;;;;21.01;59.93;100918.66;4982347;28;20498;-56
2023/09/19 06:00:22;;;;;;;3.35;1.33;;;;;;;21.00;60.40;100920.53;4989487;28;20034;-56
2023/09/19 06:02:52;;;;;;;3.70;1.50;;;;;;;20.99;60.17;100921.50;4980949;28;20034;-56
2023/09/19 06:05:17;;;;;;;3.17;1.48;;;;;;;20.99;59.93;100932.34;4980028;28;20031;-56
2023/09/19 06:07:42;;;;;;;4.68;1.80;;;;;;;21.00;60.47;100930.47;4987051;28;20030;-56
2023/09/19 06:10:08;;;;;;;4.38;1.70;;;;;;;20.99;60.36;100932.34;4979596;28;20547;-56
2023/09/19 06:12:38;;;;;;;4.68;1.75;;;;;;;20.97;59.91;100920.84;4988847;28;20469;-56
2023/09/19 06:15:15;;;;;;;4.40;1.38;;;;;;;20.97;60.13;100926.25;4984912;28;20037;-56
2023/09/19 06:17:47;;;;;;;3.92;1.40;;;;;;;20.98;60.38;100933.38;4984718;28;20037;-56
2023/09/19 06:20:14;;;;;;;6.40;1.63;;;;;;;20.98;60.14;100933.38;4982475;28;20124;-56
2023/09/19 06:22:41;;;;;;;4.88;1.52;;;;;;;20.98;60.10;100937.91;4988391;28;20122;-56
2023/09/19 06:25:07;;;;;;;4.85;1.90;;;;;;;20.98;59.93;100938.78;4988908;28;20037;-56
2023/09/19 06:27:36;;;;;;;4.18;1.30;;;;;;;20.97;59.94;100939.78;4988273;28;20492;-56
2023/09/19 06:30:01;;;;;;;7.53;2.22;;;;;;;20.97;60.25;100947.91;4987732;28;20366;-56
2023/09/19 06:32:27;;;;;;;4.70;1.77;;;;;;;20.97;60.30;100947.91;4987581;28;20031;-56
2023/09/19 06:34:54;;;;;;;3.50;1.73;;;;;;;20.97;60.25;100958.72;4986826;28;20045;-56
2023/09/19 06:37:20;;;;;;;3.55;1.17;;;;;;;20.97;60.00;100950.63;4988736;28;20150;-56
2023/09/19 06:39:47;;;;;;;3.53;1.50;;;;;;;20.96;60.30;100962.47;4982984;28;20514;-56
2023/09/19 06:42:13;;;;;;;4.13;1.48;;;;;;;20.97;60.01;100956.03;4993202;28;20549;-56
2023/09/19 06:44:38;;;;;;;6.25;1.60;;;;;;;20.97;60.09;100952.47;4985967;28;20117;-56
2023/09/19 06:47:04;;;;;;;3.55;1.67;;;;;;;20.97;60.44;100963.31;4991062;28;20444;-57
2023/09/19 06:49:30;;;;;;;4.63;1.48;;;;;;;20.97;60.09;100966.00;4992974;28;20026;-56
2023/09/19 06:51:57;;;;;;;5.47;1.92;;;;;;;20.98;60.25;100968.56;4987690;28;20035;-56
2023/09/19 06:54:22;;;;;;;2.67;1.33;;;;;;;20.99;60.63;100967.53;4994351;28;20032;-56
2023/09/19 06:56:48;;;;;;;5.38;1.67;;;;;;;20.99;60.72;100969.41;4983298;28;20062;-55
2023/09/19 06:59:14;;;;;;;7.03;1.40;;;;;;;20.99;60.24;100955.88;4989027;28;20030;-55
2023/09/19 07:01:40;;;;;;;5.57;1.80;;;;;;;20.99;60.74;100955.88;4990744;28;20406;-56
2023/09/19 07:04:05;;;;;;;6.40;1.92;;;;;;;20.99;60.46;100955.88;4989439;28;20041;-56
2023/09/19 07:06:30;;;;;;;4.43;1.70;;;;;;;20.99;60.22;100955.88;4991203;28;20035;-55
2023/09/19 07:08:56;;;;;;;6.57;1.55;;;;;;;20.99;60.09;100956.72;4991130;28;20117;-56
2023/09/19 07:11:22;;;;;;;5.95;2.03;;;;;;;20.98;59.94;100960.44;4990572;28;20108;-55
2023/09/19 07:13:48;;;;;;;3.30;1.05;;;;;;;21.00;60.35;100968.38;4992768;28;20031;-56
2023/09/19 07:16:26;;;;;;;4.95;1.73;;;;;;;20.99;60.25;100972.94;4987462;28;20038;-56
2023/09/19 07:18:52;;;;;;;2.85;1.40;;;;;;;20.99;60.36;100969.41;4983835;28;20057;-56
2023/09/19 07:21:17;;;;;;;4.78;1.50;;;;;;;20.99;59.99;100966.69;4988288;28;20504;-56
2023/09/19 07:23:43;;;;;;;7.00;1.92;;;;;;;20.99;60.22;100974.81;4986997;28;20046;-56
2023/09/19 07:26:08;;;;;;;5.03;1.90;;;;;;;21.00;60.31;100971.09;4987673;28;20102;-56
2023/09/19 07:28:35;;;;;;;6.03;1.50;;;;;;;21.00;60.03;100958.41;4987656;28;20054;-56
2023/09/19 07:31:03;;;;;;;4.38;1.77;;;;;;;21.00;60.29;100966.53;4985453;28;20025;-55
2023/09/19 07:33:28;;;;;;;5.03;1.55;;;;;;;21.01;60.37;100970.09;4990410;28;20165;-56
2023/09/19 07:35:54;;;;;;;5.07;1.70;;;;;;;21.02;60.25;100963.69;4986789;28;20544;-55
2023/09/19 07:38:20;;;;;;;8.73;1.63;;;;;;;21.01;60.64;100960.09;4989315;28;20053;-56
2023/09/19 07:40:46;;;;;;;5.13;1.80;;;;;;;21.02;60.59;100972.63;4992542;28;20369;-56
2023/09/19 07:43:11;;;;;;;6.05;1.45;;;;;;;21.04;60.81;100965.19;4989817;28;20037;-55
2023/09/19 07:45:36;;;;;;;6.45;1.45;;;;;;;21.03;61.10;100965.34;4989359;28;20139;-56
2023/09/19 07:48:04;;;;;;;3.88;1.55;;;;;;;21.05;61.17;100976.88;4986117;28;20431;-56
2023/09/19 07:50:30;;;;;;;4.78;1.50;;;;;;;21.06;61.18;100970.44;4993299;28;20038;-56
2023/09/19 07:52:56;;;;;;;5.50;1.67;;;;;;;21.06;60.92;100979.41;4993511;28;20088;-56
2023/09/19 07:55:25;;;;;;;3.40;1.75;;;;;;;21.05;61.34;100972.28;4991724;28;20034;-55
2023/09/19 07:57:52;;;;;;;3.05;1.25;;;;;;;21.06;60.81;100967.75;4990049;28;20041;-56
2023/09/19 08:00:17;;;;;;;3.65;1.45;;;;;;;21.05;60.82;100969.59;4993084;28;20030;-56
2023/09/19 08:02:43;;;;;;;6.13;1.67;;;;;;;21.07;61.28;100975.69;4990835;28;20033;-56
2023/09/19 08:05:15;;;;;;;3.85;1.50;;;;;;;21.06;61.33;100982.13;4991513;28;20041;-56
2023/09/19 08:07:43;;;;;;;3.90;1.15;;;;;;;21.06;60.90;100986.69;4991530;28;20357;-55
2023/09/19 08:10:15;;;;;;;4.30;1.52;;;;;;;21.06;61.06;100974.00;4990190;28;20461;-56
2023/09/19 08:12:46;;;;;;;4.22;1.63;;;;;;;21.07;60.89;100980.25;4990210;28;20100;-56
2023/09/19 08:15:20;;;;;;;5.17;1.80;;;;;;;21.08;61.11;100987.38;4990385;28;20034;-56
2023/09/19 08:17:46;;;;;;;4.43;2.00;;;;;;;21.07;60.94;100989.22;4989071;28;20369;-56
2023/09/19 08:20:21;;;;;;;4.65;1.75;;;;;;;21.07;61.25;100985.66;4990169;28;20557;-56
2023/09/19 08:22:54;;;;;;;5.38;1.60;;;;;;;21.07;61.13;100983.81;4987636;28;20125;-57
2023/09/19 08:25:21;;;;;;;6.10;1.77;;;;;;;21.07;61.10;100972.97;4989655;28;20307;-57
2023/09/19 08:27:48;;;;;;;4.43;2.00;;;;;;;21.08;61.17;100982.81;4991330;28;20041;-57
2023/09/19 08:30:15;;;;;;;4.35;1.55;;;;;;;21.08;61.26;100981.97;4993848;28;20237;-57
2023/09/19 08:32:42;;;;;;;4.53;1.60;;;;;;;21.08;61.19;100981.97;4984891;28;20117;-59
2023/09/19 08:35:09;;;;;;;7.53;1.92;;;;;;;21.08;61.31;100980.09;4989241;28;20041;-56
2023/09/19 08:37:34;;;;;;;8.05;2.35;;;;;;;21.08;61.67;100977.38;4985995;28;20023;-57
2023/09/19 08:40:00;;;;;;;8.32;1.73;;;;;;;21.08;61.69;100973.84;4985243;28;20048;-57
2023/09/19 08:42:26;;;;;;;3.22;1.23;;;;;;;21.09;61.68;100972.81;4988148;28;20484;-56
2023/09/19 08:44:55;;;;;;;6.93;2.00;;;;;;;21.09;61.37;100973.69;4987190;28;20101;-57
2023/09/19 08:47:35;;;;;;;4.65;1.45;;;;;;;21.08;61.46;100980.09;4987337;28;20065;-57
2023/09/19 08:50:13;;;;;;;3.22;1.75;;;;;;;21.12;61.74;100979.78;4983810;28;20583;-57
2023/09/19 08:52:43;;;;;;;4.90;1.45;;;;;;;21.10;61.88;100977.22;4990140;28;20136;-56
2023/09/19 08:55:13;;;;;;;5.20;1.58;;;;;;;21.10;61.65;100979.94;4988794;28;20034;-57
2023/09/19 08:57:43;;;;;;;6.30;1.70;;;;;;;21.11;62.05;100975.38;4984672;28;20057;-56
2023/09/19 09:00:12;;;;;;;4.35;1.33;;;;;;;21.11;61.66;100988.91;4988875;28;20026;-57
2023/09/19 09:02:42;;;;;;;5.40;1.60;;;;;;;21.12;61.93;100977.06;4988792;28;20042;-57
2023/09/19 09:05:10;;;;;;;3.53;1.40;;;;;;;21.12;61.54;100966.25;4988676;28;20026;-57
2023/09/19 09:07:40;;;;;;;4.38;1.33;;;;;;;21.12;62.13;100983.31;4989167;28;20524;-57
2023/09/19 09:10:06;;;;;;;4.65;1.52;;;;;;;21.12;61.60;100971.66;4986555;28;20026;-57
2023/09/19 09:12:32;;;;;;;2.78;1.60;;;;;;;21.13;61.57;100973.34;4987427;28;20061;-57
2023/09/19 09:14:58;;;;;;;4.10;1.67;;;;;;;21.13;61.90;100985.00;4987290;28;20169;-57
2023/09/19 09:17:26;;;;;;;3.70;1.58;;;;;;;21.14;62.17;100985.88;4987098;28;20511;-57
2023/09/19 09:19:55;;;;;;;4.10;1.88;;;;;;;21.13;62.08;100973.34;4990958;28;20034;-56
2023/09/19 09:22:21;;;;;;;5.28;1.50;;;;;;;21.13;61.84;100976.03;4987551;28;20026;-57
2023/09/19 09:24:54;;;;;;;9.45;1.58;;;;;;;21.15;62.06;100979.44;4987306;28;20137;-57
2023/09/19 09:27:20;;;;;;;5.50;1.55;;;;;;;21.15;61.90;100971.31;4988193;28;20077;-57
2023/09/19 09:29:49;;;;;;;3.65;1.45;;;;;;;21.15;61.87;100972.19;4989039;28;20067;-57
2023/09/19 09:32:26;;;;;;;5.95;1.70;;;;;;;21.16;61.92;100970.31;4987302;28;20485;-57
2023/09/19 09:34:54;;;;;;;5.57;1.58;;;;;;;21.15;62.04;100963.19;4989667;28;20041;-57
2023/09/19 09:37:21;;;;;;;6.85;1.70;;;;;;;21.15;61.74;100953.22;4989264;28;20054;-57
2023/09/19 09:39:58;;;;;;;4.38;1.67;;;;;;;21.16;61.79;100954.91;4986879;28;20069;-57
2023/09/19 09:42:46;;;;;;;3.25;1.40;;;;;;;21.18;62.22;100960.16;4990286;28;20030;-57
2023/09/19 09:45:13;;;;;;;5.88;1.50;;;;;;;21.16;61.70;100954.06;4990983;28;20373;-57
2023/09/19 09:47:55;;;;;;;2.85;1.35;;;;;;;21.14;61.98;100951.53;4990155;28;20523;-57
2023/09/19 09:50:29;;;;;;;4.47;1.40;;;;;;;21.16;62.20;100959.47;4987527;28;20432;-57
2023/09/19 09:53:06;;;;;;;5.90;1.90;;;;;;;21.16;62.04;100964.91;4989715;28;20026;-57
2023/09/19 09:56:00;;;;;;;5.93;1.30;;;;;;;21.18;62.01;100961.00;4981498;28;20038;-57
2023/09/19 09:58:29;;;;;;;4.57;2.13;;;;;;;21.15;61.88;100950.53;4987325;28;20050;-57
2023/09/19 10:01:08;;;;;;;6.45;1.50;;;;;;;21.16;62.26;100957.63;4988363;28;20034;-57
2023/09/19 10:03:54;;;;;;;3.90;1.55;;;;;;;21.17;61.80;100963.88;4986843;28;20037;-57
2023/09/19 10:06:25;;;;;;;5.30;1.65;;;;;;;21.17;62.21;100967.44;4991323;28;20042;-57
2023/09/19 10:09:12;;;;;;;;;;;;;;;21.26;61.55;100971.00;4987281;28;20415;-57
2023/09/19 10:11:42;;;;;;;4.88;1.40;;;;;;;21.19;62.12;100973.53;4990881;28;20251;-57
2023/09/19 10:14:12;;;;;;;4.38;2.00;;;;;;;21.20;61.89;100967.09;4986405;28;20160;-57
2023/09/19 10:16:41;;;;;;;3.83;1.50;;;;;;;21.18;61.79;100961.00;4989022;28;20029;-57
2023/09/19 10:19:08;;;;;;;2.47;1.42;;;;;;;21.19;61.88;100972.66;4988137;28;20042;-57
2023/09/19 10:21:36;;;;;;;5.63;1.58;;;;;;;21.19;62.05;100964.56;4988704;28;20379;-57
2023/09/19 10:24:04;;;;;;;5.13;1.80;;;;;;;21.18;61.71;100955.59;4990398;28;20631;-57
2023/09/19 10:26:30;;;;;;;4.63;1.65;;;;;;;21.19;61.86;100959.13;4991295;28;20030;-57
2023/09/19 10:28:59;;;;;;;5.63;1.75;;;;;;;21.19;61.66;100964.56;4991643;28;20165;-57
2023/09/19 10:31:27;;;;;;;2.92;1.30;;;;;;;21.19;61.79;100956.44;4990349;28;20030;-57
2023/09/19 10:33:55;;;;;;;5.10;1.70;;;;;;;21.19;61.49;100957.28;4987344;28;20034;-57
2023/09/19 10:36:25;;;;;;;3.92;1.38;;;;;;;21.20;61.75;100968.97;4989890;28;20468;-57
2023/09/19 10:38:55;;;;;;;3.50;1.42;;;;;;;21.20;61.86;100952.72;4981698;28;20042;-57
2023/09/19 10:41:22;;;;;;;5.07;1.52;;;;;;;21.19;61.93;100949.16;4988328;28;20096;-57
2023/09/19 10:43:48;;;;;;;4.72;1.35;;;;;;;21.21;61.48;100957.09;4984441;28;20030;-57
2023/09/19 10:46:14;;;;;;;4.47;1.65;;;;;;;21.22;61.97;100961.53;4988838;28;20038;-57
2023/09/19 10:48:43;;;;;;;5.05;1.67;;;;;;;21.23;61.57;100958.66;4987983;28;20589;-57
2023/09/19 10:51:13;;;;;;;3.28;1.70;;;;;;;21.23;61.59;100953.25;4988894;28;20033;-57
2023/09/19 10:53:54;;;;;;;4.32;1.60;;;;;;;21.24;61.71;100956.78;4988505;28;20026;-57
2023/09/19 10:56:36;;;;;;;3.97;1.75;;;;;;;21.26;61.49;100930.38;4990062;28;20357;-57
2023/09/19 10:59:10;;;;;;;4.15;1.63;;;;;;;21.25;61.41;100928.72;4986792;28;20062;-57
2023/09/19 11:01:52;;;;;;;3.25;1.42;;;;;;;21.26;61.93;100936.66;4986167;28;20026;-57
2023/09/19 11:04:29;;;;;;;6.05;1.50;;;;;;;21.27;61.54;100942.94;4989457;28;20034;-57
2023/09/19 11:07:11;;;;;;;4.05;1.50;;;;;;;21.24;61.93;100927.84;4987652;28;20029;-57
2023/09/19 11:09:58;;;;;;;6.22;2.08;;;;;;;21.29;61.92;100927.34;4990788;28;20058;-57
2023/09/19 11:12:37;;;;;;;5.65;1.60;;;;;;;21.26;61.94;100923.09;4986893;28;20039;-57
2023/09/19 11:15:07;;;;;;;4.30;1.20;;;;;;;21.26;61.93;100906.00;4988828;28;20057;-57
2023/09/19 11:17:34;;;;;;;4.43;1.42;;;;;;;21.26;61.66;100903.31;4987192;28;20323;-57
2023/09/19 11:22:48;;;;;;;5.45;1.50;;;;;;;21.27;61.45;100900.44;4991107;28;20858;-58
2023/09/19 11:25:34;;;;;;;3.70;1.40;;;;;;;21.30;61.95;100904.66;4989075;28;20058;-57
2023/09/19 11:28:18;;;;;;;5.97;1.58;;;;;;;21.28;61.90;100901.28;4991410;28;20096;-57
2023/09/19 11:30:52;;;;;;;2.83;1.40;;;;;;;21.29;61.52;100906.53;4991367;28;20486;-57
2023/09/19 11:33:28;;;;;;;2.83;1.45;;;;;;;21.30;61.66;100891.13;4988050;28;20089;-57
2023/09/19 11:36:09;;;;;;;4.53;1.63;;;;;;;21.30;61.85;100896.53;4989907;28;20400;-57